Time;durP1;ratioP1;P1;durP2;ratioP2;P2;SDS_P1;SDS_P2;PMS_P1;PMS_P2;Temp;Humidity;BMP_temperature;BMP_pressure;BME280_temperature;BME280_humidity;BME280_pressure;Samples;Min_cycle;Max_cycle;Signal;HPM_P1;HPM_P2
2023/10/24 00:00:30;;;;;;;1.20;1.10;;;17.70;56.30;;;;;;6159208;23;20139;-84
2023/10/24 00:02:58;;;;;;;1.73;0.90;;;17.60;56.40;;;;;;6110275;23;20498;-84
2023/10/24 00:05:27;;;;;;;1.42;0.95;;;17.70;56.60;;;;;;6109686;23;20166;-84
2023/10/24 00:07:53;;;;;;;2.38;0.77;;;17.50;56.30;;;;;;6087276;23;20154;-84
2023/10/24 00:10:20;;;;;;;2.38;0.75;;;17.60;56.40;;;;;;6185799;23;20138;-84
2023/10/24 00:12:46;;;;;;;1.23;1.02;;;17.60;56.60;;;;;;6134471;23;20184;-84
2023/10/24 00:15:11;;;;;;;0.90;0.90;;;17.70;56.50;;;;;;6110319;23;20170;-84
2023/10/24 00:17:38;;;;;;;1.52;0.90;;;17.60;56.60;;;;;;6110256;23;20201;-84
2023/10/24 00:20:04;;;;;;;1.30;0.90;;;17.60;56.50;;;;;;6022395;23;20163;-84
2023/10/24 00:22:30;;;;;;;1.85;1.15;;;17.60;56.60;;;;;;6070694;23;20272;-83
2023/10/24 00:24:56;;;;;;;1.35;1.13;;;17.60;56.60;;;;;;6070615;23;20226;-84
2023/10/24 00:27:21;;;;;;;2.63;1.10;;;17.60;56.50;;;;;;6046600;23;20160;-84
2023/10/24 00:29:47;;;;;;;1.20;1.00;;;17.60;56.40;;;;;;6046533;23;20213;-84
2023/10/24 00:32:14;;;;;;;1.85;1.17;;;17.60;56.60;;;;;;6070429;23;20613;-84
2023/10/24 00:34:39;;;;;;;1.08;0.90;;;17.60;56.60;;;;;;6070516;23;20292;-84
2023/10/24 00:37:05;;;;;;;1.75;1.00;;;17.60;56.60;;;;;;6070419;23;20228;-84
2023/10/24 00:39:31;;;;;;;1.27;0.90;;;17.60;56.50;;;;;;6046387;23;20157;-84
2023/10/24 00:41:56;;;;;;;1.75;1.00;;;17.60;56.60;;;;;;6046565;23;20593;-84
2023/10/24 00:44:22;;;;;;;0.85;0.70;;;17.60;56.60;;;;;;6070354;23;20220;-84
2023/10/24 00:46:48;;;;;;;1.17;1.00;;;17.60;56.60;;;;;;6046414;23;20160;-84
2023/10/24 00:49:13;;;;;;;0.95;0.90;;;17.60;56.50;;;;;;6070130;23;20283;-84
2023/10/24 00:51:39;;;;;;;2.15;1.10;;;17.60;56.40;;;;;;6087636;23;20226;-84
2023/10/24 00:54:05;;;;;;;1.42;1.00;;;17.60;56.60;;;;;;6133719;23;20614;-84
2023/10/24 00:56:31;;;;;;;1.15;1.02;;;17.60;56.40;;;;;;6109414;23;20221;-84
2023/10/24 00:58:57;;;;;;;1.65;1.00;;;17.60;56.80;;;;;;6109162;23;20479;-83
2023/10/24 01:01:24;;;;;;;1.60;1.00;;;17.50;56.70;;;;;;6134649;23;20210;-84
2023/10/24 01:03:50;;;;;;;1.85;1.10;;;17.50;56.60;;;;;;6133347;23;20159;-83
2023/10/24 01:06:16;;;;;;;1.20;1.10;;;17.50;56.60;;;;;;6159056;23;20213;-83
2023/10/24 01:08:42;;;;;;;0.95;0.90;;;17.50;56.70;;;;;;6134604;23;20185;-84
2023/10/24 01:11:09;;;;;;;1.00;0.90;;;17.50;56.70;;;;;;6134321;23;20139;-84
2023/10/24 01:13:34;;;;;;;3.30;1.10;;;17.60;56.60;;;;;;6085153;23;20182;-84
2023/10/24 01:16:00;;;;;;;1.10;0.88;;;17.50;56.60;;;;;;6134310;23;20139;-86
2023/10/24 01:18:26;;;;;;;1.67;1.00;;;17.50;56.70;;;;;;6159205;23;20456;-83
2023/10/24 01:20:52;;;;;;;1.38;1.02;;;17.50;56.60;;;;;;6158892;23;20209;-85
2023/10/24 01:23:17;;;;;;;2.10;1.20;;;17.60;56.50;;;;;;6158508;23;20157;-84
2023/10/24 01:25:44;;;;;;;1.30;1.13;;;17.50;56.60;;;;;;6158945;23;20146;-84
2023/10/24 01:28:10;;;;;;;1.52;1.02;;;17.50;56.80;;;;;;6158823;23;20135;-84
2023/10/24 01:30:37;;;;;;;1.30;0.90;;;17.50;56.70;;;;;;6110157;23;20165;-84
2023/10/24 01:33:02;;;;;;;1.20;0.90;;;17.50;56.80;;;;;;6109946;23;20185;-84
2023/10/24 01:35:28;;;;;;;1.30;1.00;;;17.50;56.90;;;;;;6158872;23;20130;-84
2023/10/24 01:37:54;;;;;;;1.00;0.90;;;17.50;56.90;;;;;;6159188;23;20507;-84
2023/10/24 01:40:19;;;;;;;1.35;0.88;;;17.50;56.80;;;;;;6109803;23;20178;-84
2023/10/24 01:42:45;;;;;;;1.25;1.15;;;17.50;56.90;;;;;;6109723;23;20234;-84
2023/10/24 01:45:11;;;;;;;1.15;1.00;;;17.50;56.80;;;;;;6134158;23;20146;-84
2023/10/24 01:47:36;;;;;;;1.05;0.95;;;17.50;56.90;;;;;;6185074;23;20190;-84
2023/10/24 01:50:03;;;;;;;1.27;1.10;;;17.50;56.80;;;;;;6158829;23;20547;-83
2023/10/24 01:52:29;;;;;;;1.67;1.00;;;17.50;56.90;;;;;;6134261;23;20258;-83
2023/10/24 01:54:55;;;;;;;1.52;1.02;;;17.50;57.00;;;;;;6133604;23;20627;-84
2023/10/24 01:57:20;;;;;;;1.40;1.00;;;17.50;57.00;;;;;;6109611;23;20146;-85
2023/10/24 01:59:46;;;;;;;1.67;1.05;;;17.50;56.80;;;;;;6134193;23;20139;-84
2023/10/24 02:02:13;;;;;;;0.98;0.88;;;17.50;57.00;;;;;;6134389;23;20138;-85
2023/10/24 02:04:39;;;;;;;0.93;0.82;;;17.50;56.90;;;;;;6108751;23;20486;-84
2023/10/24 02:07:04;;;;;;;1.58;0.98;;;17.50;56.90;;;;;;6185001;23;20206;-84
2023/10/24 02:09:31;;;;;;;1.88;1.08;;;17.50;57.00;;;;;;6133990;23;20147;-85
2023/10/24 02:11:59;;;;;;;1.10;1.00;;;17.50;57.00;;;;;;6136088;23;20282;-84
2023/10/24 02:14:24;;;;;;;1.00;0.88;;;17.50;57.00;;;;;;6111518;23;20249;-84
2023/10/24 02:16:50;;;;;;;1.65;1.00;;;17.50;57.10;;;;;;6111421;23;20633;-84
2023/10/24 02:19:17;;;;;;;1.38;1.00;;;17.50;56.90;;;;;;6136028;23;20600;-85
2023/10/24 02:21:43;;;;;;;1.52;0.80;;;17.50;57.10;;;;;;6110545;23;20176;-84
2023/10/24 02:24:12;;;;;;;1.27;0.85;;;17.50;57.10;;;;;;6186934;23;20528;-84
2023/10/24 02:26:37;;;;;;;1.20;1.00;;;17.50;57.00;;;;;;6062323;23;20238;-83
2023/10/24 02:29:03;;;;;;;0.95;0.85;;;17.50;57.10;;;;;;6160563;23;20682;-84
2023/10/24 02:31:29;;;;;;;0.98;0.80;;;17.50;57.10;;;;;;6135835;23;20141;-84
2023/10/24 02:33:55;;;;;;;1.27;0.90;;;17.50;57.10;;;;;;6186552;23;20169;-84
2023/10/24 02:36:20;;;;;;;1.23;1.00;;;17.50;57.10;;;;;;6135835;23;20252;-85
2023/10/24 02:38:46;;;;;;;1.50;1.05;;;17.50;57.20;;;;;;6160346;23;20143;-85
2023/10/24 02:41:12;;;;;;;0.93;0.80;;;17.50;57.00;;;;;;6135962;23;20225;-84
2023/10/24 02:43:38;;;;;;;1.02;0.90;;;17.40;57.10;;;;;;6160517;23;20143;-84
2023/10/24 02:46:04;;;;;;;2.47;0.93;;;17.40;57.10;;;;;;6186567;23;20143;-84
2023/10/24 02:48:30;;;;;;;1.10;1.00;;;17.50;57.10;;;;;;6160148;23;20196;-84
2023/10/24 02:51:00;;;;;;;1.25;0.80;;;17.50;57.20;;;;;;6135873;23;20215;-84
2023/10/24 02:53:30;;;;;;;1.80;1.00;;;17.50;57.20;;;;;;6056343;23;20574;-84
2023/10/24 02:55:59;;;;;;;0.80;0.80;;;17.50;57.20;;;;;;6109142;23;20161;-85
2023/10/24 02:58:25;;;;;;;1.30;0.90;;;17.50;57.10;;;;;;6136452;23;20840;-84
2023/10/24 03:00:51;;;;;;;3.45;1.13;;;17.50;57.30;;;;;;6160218;23;20134;-85
2023/10/24 03:03:16;;;;;;;1.50;1.02;;;17.50;57.20;;;;;;6135707;23;20139;-84
2023/10/24 03:05:42;;;;;;;1.13;0.98;;;17.50;57.20;;;;;;6135646;23;20451;-84
2023/10/24 03:08:11;;;;;;;1.13;0.90;;;17.50;57.90;;;;;;6111066;23;20238;-84
2023/10/24 03:10:40;;;;;;;0.80;0.80;;;17.40;57.20;;;;;;6080935;23;20165;-85
2023/10/24 03:13:06;;;;;;;1.27;0.82;;;17.50;57.30;;;;;;6119180;23;20168;-84
2023/10/24 03:15:33;;;;;;;1.70;1.02;;;17.50;57.30;;;;;;6135607;23;20515;-84
2023/10/24 03:17:59;;;;;;;1.23;1.10;;;17.50;57.30;;;;;;6111459;23;20157;-84
2023/10/24 03:20:26;;;;;;;0.95;0.90;;;17.50;57.40;;;;;;6105195;23;20147;-84
2023/10/24 03:22:54;;;;;;;0.77;0.70;;;17.50;57.30;;;;;;6183779;23;20155;-84
2023/10/24 03:25:19;;;;;;;1.52;0.90;;;17.40;57.30;;;;;;6081443;23;20209;-83
2023/10/24 03:27:45;;;;;;;1.23;0.90;;;17.40;57.20;;;;;;6156586;23;20143;-83
2023/10/24 03:30:11;;;;;;;1.10;1.00;;;17.40;57.40;;;;;;6160406;23;20143;-86
2023/10/24 03:32:36;;;;;;;0.82;0.80;;;17.40;57.30;;;;;;6159961;23;20162;-85
2023/10/24 03:35:11;;;;;;;1.13;1.00;;;17.40;57.30;;;;;;6160190;23;20562;-83
2023/10/24 03:37:36;;;;;;;1.20;0.90;;;17.40;57.30;;;;;;6086082;23;20180;-85
2023/10/24 03:40:03;;;;;;;1.13;0.98;;;17.40;57.40;;;;;;6110849;23;20575;-83
2023/10/24 03:42:35;;;;;;;2.08;1.10;;;17.40;57.10;;;;;;6135588;23;20174;-84
2023/10/24 03:45:00;;;;;;;0.93;0.80;;;17.40;57.30;;;;;;6085821;23;20181;-83
2023/10/24 03:47:26;;;;;;;0.98;0.88;;;17.50;57.40;;;;;;6134968;23;20166;-84
2023/10/24 03:49:55;;;;;;;1.05;0.85;;;17.40;57.40;;;;;;6159865;23;20158;-84
2023/10/24 03:52:20;;;;;;;1.30;1.20;;;17.40;57.30;;;;;;6109433;23;20169;-84
2023/10/24 03:54:46;;;;;;;0.80;0.80;;;17.40;57.30;;;;;;6184956;23;20154;-83
2023/10/24 03:57:12;;;;;;;1.55;0.90;;;17.40;57.50;;;;;;6159544;23;20497;-84
2023/10/24 03:59:37;;;;;;;1.83;0.90;;;17.40;57.40;;;;;;6185787;23;20135;-85
2023/10/24 04:02:03;;;;;;;0.93;0.90;;;17.40;57.40;;;;;;6135362;23;20453;-83
2023/10/24 04:04:29;;;;;;;1.17;1.00;;;17.40;57.40;;;;;;6159737;23;20474;-85
2023/10/24 04:06:55;;;;;;;1.13;0.90;;;17.40;57.30;;;;;;6185851;23;20131;-84
2023/10/24 04:09:21;;;;;;;1.40;1.00;;;17.40;57.50;;;;;;6159619;23;20146;-84
2023/10/24 04:11:47;;;;;;;1.30;1.00;;;17.40;57.50;;;;;;6159653;23;20145;-84
2023/10/24 04:14:17;;;;;;;1.20;1.10;;;17.40;57.50;;;;;;6159455;23;20599;-84
2023/10/24 04:16:44;;;;;;;1.30;1.10;;;17.40;57.60;;;;;;6109889;23;20157;-84
2023/10/24 04:19:10;;;;;;;0.82;0.80;;;17.30;57.50;;;;;;6085271;23;20529;-84
2023/10/24 04:21:36;;;;;;;1.63;1.10;;;17.40;57.50;;;;;;6185655;23;20606;-84
2023/10/24 04:24:02;;;;;;;1.25;1.05;;;17.40;57.60;;;;;;6110314;23;20159;-84
2023/10/24 04:26:27;;;;;;;1.13;0.90;;;17.40;57.50;;;;;;6135033;23;20474;-85
2023/10/24 04:28:53;;;;;;;1.02;0.90;;;17.40;57.50;;;;;;6185929;23;20135;-84
2023/10/24 04:31:20;;;;;;;1.38;1.08;;;17.40;57.50;;;;;;6159311;23;20540;-84
2023/10/24 04:33:46;;;;;;;0.93;0.93;;;17.40;57.60;;;;;;6133970;23;20550;-85
2023/10/24 04:36:11;;;;;;;1.17;0.90;;;17.50;57.30;;;;;;6134760;23;20597;-84
2023/10/24 04:38:38;;;;;;;1.25;0.90;;;17.40;57.60;;;;;;6110037;23;20150;-84
2023/10/24 04:41:03;;;;;;;1.38;1.20;;;17.30;57.50;;;;;;6134371;23;20174;-84
2023/10/24 04:43:29;;;;;;;1.52;1.02;;;17.40;57.60;;;;;;6134758;23;20185;-84
2023/10/24 04:45:55;;;;;;;1.10;1.00;;;17.40;57.70;;;;;;6158765;23;20154;-84
2023/10/24 04:48:21;;;;;;;1.20;1.10;;;17.40;57.50;;;;;;6153949;23;20537;-85
2023/10/24 04:50:47;;;;;;;0.95;0.90;;;17.40;57.70;;;;;;6131617;23;20151;-83
2023/10/24 04:53:14;;;;;;;1.25;1.00;;;17.40;57.50;;;;;;6158411;23;20216;-84
2023/10/24 04:55:39;;;;;;;1.85;1.05;;;17.40;57.50;;;;;;6159108;23;20205;-83
2023/10/24 04:58:06;;;;;;;1.05;0.85;;;17.30;57.60;;;;;;6159304;23;20220;-84
2023/10/24 05:00:32;;;;;;;1.20;1.00;;;17.40;57.80;;;;;;6159436;23;20127;-84
2023/10/24 05:02:58;;;;;;;2.08;0.90;;;17.40;57.80;;;;;;6158965;23;20219;-85
2023/10/24 05:05:23;;;;;;;1.10;1.00;;;17.40;57.80;;;;;;6109929;23;20151;-84
2023/10/24 05:07:50;;;;;;;0.80;0.80;;;17.30;57.70;;;;;;6134906;23;20139;-84
2023/10/24 05:10:16;;;;;;;1.00;0.70;;;17.30;57.70;;;;;;6158996;23;20151;-84
2023/10/24 05:12:42;;;;;;;1.00;0.90;;;17.30;57.80;;;;;;6134202;23;20183;-84
2023/10/24 05:15:08;;;;;;;1.17;1.00;;;17.30;57.80;;;;;;6158937;23;20601;-84
2023/10/24 05:17:34;;;;;;;1.00;0.85;;;17.40;57.80;;;;;;6134554;23;20170;-84
2023/10/24 05:20:02;;;;;;;0.90;0.80;;;17.40;57.70;;;;;;6134450;23;20131;-84
2023/10/24 05:22:28;;;;;;;1.35;0.82;;;17.40;57.80;;;;;;6135659;23;20158;-84
2023/10/24 05:24:54;;;;;;;0.80;0.80;;;17.30;57.90;;;;;;6158770;23;20147;-84
2023/10/24 05:27:20;;;;;;;1.50;1.10;;;17.40;57.90;;;;;;6185156;23;20559;-85
2023/10/24 05:29:45;;;;;;;0.80;0.80;;;17.40;57.80;;;;;;6158964;23;20138;-84
2023/10/24 05:32:11;;;;;;;0.88;0.80;;;17.30;57.90;;;;;;6158770;23;20135;-84
2023/10/24 05:34:38;;;;;;;1.05;0.90;;;17.20;57.80;;;;;;6109826;23;20151;-84
2023/10/24 05:37:03;;;;;;;0.95;0.90;;;17.30;57.90;;;;;;6134817;23;20230;-84
2023/10/24 05:39:30;;;;;;;1.00;0.90;;;17.30;57.90;;;;;;6158474;23;20504;-84
2023/10/24 05:41:56;;;;;;;0.90;0.82;;;17.30;57.80;;;;;;6134556;23;20162;-84
2023/10/24 05:44:21;;;;;;;1.13;0.95;;;17.40;57.70;;;;;;6134116;23;20142;-84
2023/10/24 05:46:48;;;;;;;1.20;1.00;;;17.40;57.20;;;;;;6158624;23;20130;-84
2023/10/24 05:49:14;;;;;;;1.20;0.98;;;17.50;56.90;;;;;;6157474;23;20187;-84
2023/10/24 05:51:40;;;;;;;0.90;0.77;;;17.50;56.50;;;;;;6158635;23;20131;-84
2023/10/24 05:54:06;;;;;;;1.02;0.90;;;17.50;56.20;;;;;;6157752;23;20170;-83
2023/10/24 05:56:32;;;;;;;0.60;0.60;;;17.50;56.00;;;;;;6133862;23;20186;-84
2023/10/24 05:58:58;;;;;;;2.53;1.10;;;17.50;55.80;;;;;;6109533;23;20158;-84
2023/10/24 06:01:23;;;;;;;0.70;0.70;;;17.50;55.50;;;;;;6133760;23;20538;-83
2023/10/24 06:03:49;;;;;;;0.90;0.82;;;17.50;55.40;;;;;;6134073;23;20149;-84
2023/10/24 06:06:15;;;;;;;0.70;0.70;;;17.50;55.20;;;;;;6111140;23;20225;-84
2023/10/24 06:08:41;;;;;;;0.70;0.70;;;17.50;55.10;;;;;;6158580;23;20138;-84
2023/10/24 06:11:08;;;;;;;1.33;0.90;;;17.60;55.00;;;;;;6110116;23;20162;-85
2023/10/24 06:13:34;;;;;;;0.88;0.88;;;17.50;54.80;;;;;;6134594;23;20514;-85
2023/10/24 06:16:18;;;;;;;0.60;0.60;;;17.60;54.60;;;;;;6110302;23;20234;-84
2023/10/24 06:18:46;;;;;;;0.70;0.68;;;17.60;54.70;;;;;;6135470;23;20629;-84
2023/10/24 06:21:12;;;;;;;0.88;0.88;;;17.60;54.60;;;;;;6108533;23;20585;-86
2023/10/24 06:23:38;;;;;;;0.93;0.80;;;17.60;54.50;;;;;;6136039;23;20147;-84
2023/10/24 06:26:12;;;;;;;0.90;0.75;;;17.70;54.40;;;;;;6135775;23;20899;-85
2023/10/24 06:28:37;;;;;;;0.77;0.77;;;17.70;54.40;;;;;;6111322;23;20154;-84
2023/10/24 06:31:08;;;;;;;2.47;0.80;;;17.70;54.50;;;;;;6109845;23;20177;-84
2023/10/24 06:33:35;;;;;;;0.70;0.70;;;17.70;54.50;;;;;;6108726;23;20258;-84
2023/10/24 06:36:04;;;;;;;1.00;0.80;;;17.70;54.40;;;;;;6158600;23;20131;-84
2023/10/24 06:38:30;;;;;;;0.88;0.70;;;17.70;54.20;;;;;;6060897;23;20205;-84
2023/10/24 06:40:58;;;;;;;0.98;0.80;;;17.70;54.20;;;;;;6109585;23;20542;-84
2023/10/24 06:43:25;;;;;;;1.40;0.80;;;17.70;54.10;;;;;;6085368;23;20559;-84
2023/10/24 06:45:51;;;;;;;0.75;0.70;;;17.70;54.20;;;;;;6133419;23;20147;-83
2023/10/24 06:48:16;;;;;;;0.70;0.70;;;17.60;54.10;;;;;;6133794;23;20571;-84
2023/10/24 06:50:42;;;;;;;0.70;0.70;;;17.60;54.10;;;;;;6133923;23;20166;-85
2023/10/24 06:53:08;;;;;;;1.15;0.80;;;17.60;54.10;;;;;;6133032;23;20545;-85
2023/10/24 06:55:35;;;;;;;1.40;0.88;;;17.70;54.00;;;;;;6134323;23;20131;-85
2023/10/24 06:58:03;;;;;;;1.13;0.70;;;17.60;54.00;;;;;;6134708;23;20147;-84
2023/10/24 07:00:29;;;;;;;0.80;0.80;;;17.60;53.90;;;;;;6135943;23;20154;-85
2023/10/24 07:02:55;;;;;;;1.25;0.95;;;17.70;53.60;;;;;;6161092;23;20131;-84
2023/10/24 07:05:22;;;;;;;0.60;0.60;;;17.70;53.70;;;;;;6160129;23;20177;-85
2023/10/24 07:07:48;;;;;;;0.70;0.70;;;17.70;53.60;;;;;;6160249;23;20139;-84
2023/10/24 07:10:14;;;;;;;0.60;0.60;;;17.70;53.70;;;;;;6159873;23;20143;-85
2023/10/24 07:12:40;;;;;;;0.80;0.80;;;17.60;53.70;;;;;;6160070;23;20541;-85
2023/10/24 07:15:07;;;;;;;1.08;0.80;;;17.70;53.50;;;;;;6135912;23;20567;-84
2023/10/24 07:17:33;;;;;;;0.95;0.90;;;17.70;53.30;;;;;;6136166;23;20558;-84
2023/10/24 07:19:59;;;;;;;1.08;0.98;;;17.70;53.30;;;;;;6135157;23;20147;-84
2023/10/24 07:22:28;;;;;;;0.85;0.70;;;17.70;53.60;;;;;;6111201;23;20151;-84
2023/10/24 07:24:54;;;;;;;0.70;0.70;;;17.70;53.60;;;;;;6086390;23;20162;-84
2023/10/24 07:27:22;;;;;;;0.95;0.85;;;17.60;53.30;;;;;;6109679;23;20154;-84
2023/10/24 07:29:48;;;;;;;1.20;0.70;;;17.70;53.30;;;;;;6107105;23;20155;-84
2023/10/24 07:32:14;;;;;;;0.88;0.70;;;17.70;53.30;;;;;;6157921;23;20150;-84
2023/10/24 07:34:41;;;;;;;0.80;0.80;;;17.70;53.50;;;;;;6132976;23;20162;-84
2023/10/24 07:37:08;;;;;;;0.82;0.70;;;17.60;53.70;;;;;;6133568;23;20521;-84
2023/10/24 07:39:34;;;;;;;0.80;0.80;;;17.60;53.80;;;;;;6108315;23;20147;-85
2023/10/24 07:42:00;;;;;;;0.95;0.85;;;17.60;53.70;;;;;;6160550;23;20146;-84
2023/10/24 07:44:27;;;;;;;0.75;0.70;;;17.50;53.60;;;;;;6161654;23;20465;-84
2023/10/24 07:46:52;;;;;;;0.90;0.85;;;17.60;53.40;;;;;;6161172;23;20178;-83
2023/10/24 07:49:19;;;;;;;0.70;0.70;;;17.50;53.30;;;;;;6112091;23;20621;-84
2023/10/24 07:51:48;;;;;;;1.10;0.95;;;17.60;53.30;;;;;;6112635;23;20143;-84
2023/10/24 07:54:13;;;;;;;1.02;0.80;;;17.60;53.30;;;;;;6110907;23;20196;-84
2023/10/24 07:56:40;;;;;;;0.80;0.80;;;17.50;53.20;;;;;;6112793;23;20229;-83
2023/10/24 07:59:07;;;;;;;0.90;0.80;;;17.60;53.20;;;;;;6161464;23;20459;-83
2023/10/24 08:01:34;;;;;;;1.25;0.93;;;17.70;53.00;;;;;;6137307;23;20247;-84
2023/10/24 08:03:59;;;;;;;0.93;0.82;;;17.60;53.00;;;;;;6160989;23;20170;-84
2023/10/24 08:06:25;;;;;;;2.08;1.20;;;17.60;53.00;;;;;;6137314;23;20154;-84
2023/10/24 08:08:51;;;;;;;1.02;0.80;;;17.60;53.70;;;;;;6113710;23;20150;-85
2023/10/24 08:11:18;;;;;;;0.80;0.80;;;17.60;53.00;;;;;;6114788;23;20234;-85
2023/10/24 08:13:44;;;;;;;0.88;0.75;;;17.60;52.90;;;;;;6138778;23;20178;-83
2023/10/24 08:16:11;;;;;;;0.80;0.80;;;17.60;52.60;;;;;;6163965;23;20132;-83
2023/10/24 08:18:37;;;;;;;0.88;0.88;;;17.70;52.50;;;;;;6162965;23;20189;-85
2023/10/24 08:21:03;;;;;;;1.45;0.82;;;17.70;52.40;;;;;;6162970;23;20190;-83
2023/10/24 08:23:29;;;;;;;0.80;0.63;;;17.70;52.30;;;;;;6113291;23;20143;-84
2023/10/24 08:25:56;;;;;;;1.08;0.70;;;17.70;52.10;;;;;;6162163;23;20470;-84
2023/10/24 08:28:24;;;;;;;1.48;0.70;;;17.70;52.20;;;;;;6088416;23;20217;-83
2023/10/24 08:30:52;;;;;;;0.60;0.60;;;17.70;52.20;;;;;;6138190;23;20203;-84
2023/10/24 08:33:20;;;;;;;0.63;0.63;;;17.70;52.20;;;;;;6111543;23;20245;-84
2023/10/24 08:35:47;;;;;;;0.80;0.73;;;17.70;52.10;;;;;;6162439;23;20563;-84
2023/10/24 08:38:17;;;;;;;0.88;0.70;;;17.70;52.10;;;;;;6112269;23;20589;-83
2023/10/24 08:40:43;;;;;;;0.80;0.77;;;17.70;52.10;;;;;;6088317;23;20513;-84
2023/10/24 08:43:09;;;;;;;0.88;0.80;;;17.80;52.00;;;;;;6162767;23;20142;-84
2023/10/24 08:45:37;;;;;;;2.70;0.93;;;17.70;52.00;;;;;;6162785;23;20159;-84
2023/10/24 08:48:05;;;;;;;1.05;0.70;;;17.70;51.90;;;;;;6083726;23;20562;-84
2023/10/24 08:50:32;;;;;;;0.90;0.80;;;17.70;51.90;;;;;;6109873;23;20167;-84
2023/10/24 08:53:02;;;;;;;0.63;0.63;;;17.80;51.90;;;;;;6157650;23;20175;-85
2023/10/24 08:55:29;;;;;;;1.17;0.77;;;17.80;51.80;;;;;;6084138;23;20159;-84
2023/10/24 08:57:54;;;;;;;1.65;0.70;;;17.70;52.10;;;;;;6109479;23;20147;-86
2023/10/24 09:00:22;;;;;;;1.17;0.80;;;17.70;51.80;;;;;;6159039;23;20143;-85
2023/10/24 09:02:53;;;;;;;0.88;0.85;;;17.80;51.80;;;;;;6160676;23;20140;-84
2023/10/24 09:05:19;;;;;;;1.20;0.80;;;17.80;52.00;;;;;;6108661;23;20159;-84
2023/10/24 09:07:45;;;;;;;1.15;0.70;;;17.80;51.80;;;;;;6133118;23;20634;-85
2023/10/24 09:10:11;;;;;;;0.85;0.80;;;17.80;51.90;;;;;;6134357;23;20162;-84
2023/10/24 09:12:39;;;;;;;0.88;0.70;;;17.80;51.90;;;;;;6133160;23;20223;-85
2023/10/24 09:15:09;;;;;;;1.20;0.93;;;17.80;52.00;;;;;;6160106;23;20634;-84
2023/10/24 09:17:35;;;;;;;0.80;0.80;;;17.70;52.00;;;;;;6134421;23;20210;-84
2023/10/24 09:20:03;;;;;;;1.02;0.93;;;17.70;52.10;;;;;;6108994;23;20199;-84
2023/10/24 09:22:35;;;;;;;0.80;0.80;;;17.60;52.00;;;;;;6134141;23;20131;-84
2023/10/24 09:25:07;;;;;;;1.20;1.10;;;17.70;52.00;;;;;;6084526;23;20155;-85
2023/10/24 09:27:33;;;;;;;0.90;0.80;;;17.70;52.00;;;;;;6084449;23;20151;-84
2023/10/24 09:30:10;;;;;;;0.75;0.75;;;17.70;51.90;;;;;;6106888;23;20151;-84
2023/10/24 09:32:43;;;;;;;0.98;0.88;;;17.70;51.90;;;;;;6158691;23;20145;-84
2023/10/24 09:35:09;;;;;;;0.70;0.70;;;17.60;51.80;;;;;;6061738;23;20156;-85
2023/10/24 09:37:43;;;;;;;1.00;0.90;;;17.70;51.80;;;;;;6136590;23;20174;-84
2023/10/24 09:40:11;;;;;;;0.98;0.70;;;17.60;51.60;;;;;;6159917;23;20601;-85
2023/10/24 09:42:36;;;;;;;1.05;0.80;;;17.70;51.60;;;;;;6109758;23;20238;-85
2023/10/24 09:45:05;;;;;;;2.15;0.80;;;17.70;51.50;;;;;;6134355;23;20155;-84
2023/10/24 09:47:31;;;;;;;0.80;0.70;;;17.80;51.30;;;;;;6137876;23;20475;-84
2023/10/24 09:49:58;;;;;;;0.77;0.77;;;17.80;51.20;;;;;;6115260;23;20158;-85
2023/10/24 09:52:29;;;;;;;0.82;0.70;;;17.80;51.10;;;;;;6189459;23;20123;-85
2023/10/24 09:54:55;;;;;;;0.80;0.70;;;17.80;51.00;;;;;;6064335;23;20468;-85
2023/10/24 09:57:27;;;;;;;1.05;0.90;;;17.80;50.90;;;;;;6162693;23;20194;-84
2023/10/24 09:59:55;;;;;;;0.75;0.70;;;17.80;51.00;;;;;;6113368;23;20605;-84
2023/10/24 10:02:23;;;;;;;1.20;0.80;;;17.70;50.80;;;;;;6163847;23;20127;-84
2023/10/24 10:04:50;;;;;;;0.80;0.70;;;17.80;50.70;;;;;;6136783;23;20630;-84
2023/10/24 10:07:16;;;;;;;0.98;0.82;;;17.70;50.50;;;;;;6137305;23;20143;-84
2023/10/24 10:09:46;;;;;;;1.27;0.70;;;17.80;50.50;;;;;;6112522;23;20523;-85
2023/10/24 10:12:13;;;;;;;0.73;0.70;;;17.70;50.40;;;;;;6160575;23;20217;-84
2023/10/24 10:14:57;;;;;;;0.80;0.80;;;17.80;50.30;;;;;;6111148;23;20650;-84
2023/10/24 10:17:35;;;;;;;1.13;0.70;;;17.80;50.30;;;;;;6135519;23;20494;-86
2023/10/24 10:20:28;;;;;;;1.02;0.70;;;17.80;50.00;;;;;;6109781;23;20143;-86
2023/10/24 10:23:26;;;;;;;0.50;0.50;;;17.80;50.10;;;;;;6156399;23;20225;-86
2023/10/24 10:26:10;;;;;;;1.08;0.90;;;17.90;50.10;;;;;;6140130;23;20147;-85
2023/10/24 10:28:46;;;;;;;2.05;0.90;;;17.90;49.80;;;;;;6156710;23;20467;-86
2023/10/24 10:31:39;;;;;;;1.45;0.80;;;17.90;49.90;;;;;;6108559;23;20154;-86
2023/10/24 10:34:06;;;;;;;0.73;0.60;;;18.00;49.80;;;;;;6143262;23;20183;-86
2023/10/24 10:36:32;;;;;;;0.60;0.60;;;18.00;49.70;;;;;;6135220;23;20131;-86
2023/10/24 10:39:00;;;;;;;1.10;0.70;;;17.90;49.70;;;;;;6160195;23;20143;-86
2023/10/24 10:41:33;;;;;;;1.25;0.70;;;17.90;49.60;;;;;;6186784;23;20155;-86
2023/10/24 10:43:59;;;;;;;1.08;0.90;;;18.00;49.50;;;;;;6111342;23;20249;-86
2023/10/24 10:46:29;;;;;;;4.05;0.80;;;17.90;49.40;;;;;;6135991;23;20135;-86
2023/10/24 10:48:57;;;;;;;0.70;0.70;;;18.00;49.50;;;;;;6135289;23;20191;-85
2023/10/24 10:51:26;;;;;;;0.80;0.80;;;17.90;49.30;;;;;;6111430;23;20181;-85
2023/10/24 10:54:17;;;;;;;0.93;0.75;;;17.90;49.40;;;;;;6158956;23;20166;-86
2023/10/24 10:56:43;;;;;;;0.80;0.80;;;17.80;49.40;;;;;;6135773;23;20189;-86
2023/10/24 10:59:32;;;;;;;0.68;0.60;;;17.90;49.40;;;;;;6110781;23;20142;-86
2023/10/24 11:02:23;;;;;;;2.25;0.70;;;17.90;49.30;;;;;;6135745;23;20150;-86
2023/10/24 11:04:49;;;;;;;0.70;0.68;;;17.90;49.20;;;;;;6137222;23;20143;-85
2023/10/24 11:07:16;;;;;;;1.75;0.85;;;17.90;49.80;;;;;;6135440;23;20135;-85
2023/10/24 11:09:42;;;;;;;0.60;0.60;;;17.90;49.30;;;;;;6110057;23;20154;-85
2023/10/24 11:12:28;;;;;;;1.05;0.75;;;18.00;49.10;;;;;;6159995;23;20132;-86
2023/10/24 11:15:26;;;;;;;0.70;0.60;;;18.00;49.00;;;;;;6160329;23;20162;-85
2023/10/24 11:17:57;;;;;;;1.05;0.90;;;18.00;49.00;;;;;;6109648;23;20155;-85
2023/10/24 11:20:27;;;;;;;0.65;0.65;;;18.00;48.90;;;;;;6061793;23;20150;-86
2023/10/24 11:22:53;;;;;;;1.30;0.82;;;17.90;48.90;;;;;;6110903;23;20178;-85
2023/10/24 11:25:19;;;;;;;0.77;0.60;;;17.90;49.50;;;;;;6110970;23;20162;-85
2023/10/24 11:27:48;;;;;;;0.60;0.60;;;17.90;48.70;;;;;;6135599;23;20150;-85
2023/10/24 11:30:13;;;;;;;0.88;0.73;;;18.00;48.80;;;;;;6111061;23;20159;-85
2023/10/24 11:32:40;;;;;;;1.00;0.73;;;17.90;48.70;;;;;;6135058;23;20149;-86
2023/10/24 11:35:06;;;;;;;1.75;0.80;;;17.90;48.80;;;;;;6135022;23;20138;-85
2023/10/24 11:37:32;;;;;;;1.20;0.75;;;17.90;48.70;;;;;;6135255;23;20214;-85
2023/10/24 11:39:58;;;;;;;0.88;0.70;;;17.90;48.80;;;;;;6134976;23;20186;-86
2023/10/24 11:42:24;;;;;;;1.48;0.77;;;17.90;48.80;;;;;;6134980;23;20146;-86
2023/10/24 11:44:52;;;;;;;1.02;0.80;;;17.80;48.80;;;;;;6110087;23;20143;-86
2023/10/24 11:47:17;;;;;;;0.90;0.77;;;17.80;48.90;;;;;;6084818;23;20154;-85
2023/10/24 11:49:47;;;;;;;2.30;0.80;;;17.80;48.70;;;;;;6159803;23;20199;-86
2023/10/24 11:52:14;;;;;;;2.13;0.80;;;17.90;48.70;;;;;;6160163;23;20158;-86
2023/10/24 11:54:40;;;;;;;0.60;0.60;;;17.90;48.60;;;;;;6135018;23;20170;-85
2023/10/24 11:57:06;;;;;;;0.85;0.80;;;18.00;48.50;;;;;;6111186;23;20147;-85
2023/10/24 11:59:37;;;;;;;1.00;0.90;;;17.90;48.50;;;;;;6186218;23;20155;-86
2023/10/24 12:02:03;;;;;;;0.98;0.77;;;17.90;48.50;;;;;;6062058;23;20178;-85
2023/10/24 12:04:30;;;;;;;0.95;0.70;;;17.90;48.40;;;;;;6160535;23;20135;-85
2023/10/24 12:07:06;;;;;;;1.02;0.70;;;17.90;48.20;;;;;;6160795;23;20563;-85
2023/10/24 12:09:34;;;;;;;1.27;0.95;;;17.90;48.20;;;;;;6109478;23;20156;-85
2023/10/24 12:12:01;;;;;;;1.05;0.95;;;17.90;48.20;;;;;;6061800;23;20159;-85
2023/10/24 12:14:28;;;;;;;1.73;0.90;;;17.90;48.30;;;;;;6160677;23;20499;-85
2023/10/24 12:16:54;;;;;;;1.48;0.60;;;17.90;48.40;;;;;;6136020;23;20155;-85
2023/10/24 12:19:20;;;;;;;2.50;0.60;;;17.90;48.30;;;;;;6159186;23;20157;-86
2023/10/24 12:21:49;;;;;;;1.77;0.90;;;17.90;48.20;;;;;;6185621;23;20131;-86
2023/10/24 12:24:15;;;;;;;1.00;0.68;;;17.80;48.30;;;;;;6084956;23;20158;-86
2023/10/24 12:26:40;;;;;;;0.88;0.70;;;17.90;48.30;;;;;;6110046;23;20201;-86
2023/10/24 12:29:10;;;;;;;1.38;1.00;;;17.90;48.20;;;;;;6159362;23;20139;-86
2023/10/24 12:31:37;;;;;;;0.50;0.50;;;17.90;48.10;;;;;;6086048;23;20163;-86
2023/10/24 12:34:03;;;;;;;0.90;0.75;;;17.90;48.00;;;;;;6110929;23;20175;-86
2023/10/24 12:36:29;;;;;;;1.13;0.80;;;17.90;48.00;;;;;;6165698;23;20153;-86
2023/10/24 12:38:55;;;;;;;0.90;0.77;;;17.90;48.20;;;;;;6161278;23;20135;-86
2023/10/24 12:41:20;;;;;;;1.27;0.90;;;17.90;48.10;;;;;;6135404;23;20196;-85
2023/10/24 12:43:46;;;;;;;1.00;0.90;;;17.90;48.20;;;;;;6111149;23;20642;-85
2023/10/24 12:46:13;;;;;;;1.92;0.60;;;17.90;48.20;;;;;;6136759;23;20590;-86
2023/10/24 12:48:39;;;;;;;0.70;0.70;;;18.00;48.10;;;;;;6136374;23;20285;-86